Time;durP1;ratioP1;P1;durP2;ratioP2;P2;SDS_P1;SDS_P2;PMS_P1;PMS_P2;Temp;Humidity;BMP_temperature;BMP_pressure;BME280_temperature;BME280_humidity;BME280_pressure;Samples;Min_cycle;Max_cycle;Signal;HPM_P1;HPM_P2
2023/07/02 00:01:04;;;;;;;1.92;1.33;;;;;;;;;;8346881;28;20047;-60
2023/07/02 00:05:05;;;;;;;6.82;1.40;;;;;;;;;;8323499;28;20126;-60
2023/07/02 00:09:10;;;;;;;2.22;1.55;;;;;;;;;;8346605;28;20029;-60
2023/07/02 00:13:10;;;;;;;4.47;1.50;;;;;;;;;;8340591;28;20627;-60
2023/07/02 00:17:13;;;;;;;2.72;1.50;;;;;;;;;;8328826;28;20035;-60
2023/07/02 00:21:13;;;;;;;3.28;1.55;;;;;;;;;;8337777;28;20105;-60
2023/07/02 00:25:14;;;;;;;2.33;1.40;;;;;;;;;;8338493;28;20028;-60
2023/07/02 00:29:14;;;;;;;2.53;1.40;;;;;;;;;;8343818;28;20319;-60
2023/07/02 00:33:15;;;;;;;3.70;1.60;;;;;;;;;;8338594;28;20054;-60
2023/07/02 00:37:15;;;;;;;3.72;1.60;;;;;;;;;;8339064;28;20033;-60
2023/07/02 00:41:16;;;;;;;2.63;1.40;;;;;;;;;;8342499;28;20088;-60
2023/07/02 00:45:16;;;;;;;2.28;1.70;;;;;;;;;;8348592;28;20028;-60
2023/07/02 00:49:16;;;;;;;3.58;1.88;;;;;;;;;;8350115;28;20024;-60
2023/07/02 00:53:16;;;;;;;3.45;1.58;;;;;;;;;;8342252;28;20613;-60
2023/07/02 00:57:17;;;;;;;6.15;1.83;;;;;;;;;;8344381;28;21027;-60
2023/07/02 01:01:18;;;;;;;5.68;1.88;;;;;;;;;;8339661;28;20041;-60
2023/07/02 01:05:21;;;;;;;6.03;2.85;;;;;;;;;;8339892;28;20468;-60
2023/07/02 01:09:21;;;;;;;5.43;3.03;;;;;;;;;;8338934;28;20028;-60
2023/07/02 01:13:23;;;;;;;5.43;3.23;;;;;;;;;;8338414;28;20056;-60
2023/07/02 01:17:23;;;;;;;3.85;2.97;;;;;;;;;;8337285;28;20028;-60
2023/07/02 01:21:24;;;;;;;4.57;2.58;;;;;;;;;;8338159;28;20060;-60
2023/07/02 01:25:24;;;;;;;5.05;2.92;;;;;;;;;;8337489;28;20028;-60
2023/07/02 01:29:25;;;;;;;7.68;3.65;;;;;;;;;;8346366;28;20040;-60
2023/07/02 01:33:25;;;;;;;6.07;3.42;;;;;;;;;;8341678;28;20033;-60
2023/07/02 01:37:25;;;;;;;9.63;4.18;;;;;;;;;;8342555;28;20028;-60
2023/07/02 01:41:25;;;;;;;6.65;4.25;;;;;;;;;;8343575;28;20028;-60
2023/07/02 01:45:26;;;;;;;8.10;4.35;;;;;;;;;;8334411;28;20167;-60
2023/07/02 01:49:26;;;;;;;9.63;4.55;;;;;;;;;;8337028;28;20044;-60
2023/07/02 01:53:26;;;;;;;9.23;4.63;;;;;;;;;;8342668;28;20158;-60
2023/07/02 01:57:26;;;;;;;8.48;4.65;;;;;;;;;;8338710;28;20023;-60
2023/07/02 02:01:27;;;;;;;8.20;4.40;;;;;;;;;;8338216;28;20033;-60
2023/07/02 02:05:27;;;;;;;6.75;4.35;;;;;;;;;;8335434;28;20028;-60
2023/07/02 02:09:30;;;;;;;5.37;3.73;;;;;;;;;;8336276;28;20028;-60
2023/07/02 02:13:30;;;;;;;5.45;3.50;;;;;;;;;;8337797;28;20052;-60
2023/07/02 02:17:30;;;;;;;7.22;3.67;;;;;;;;;;8343622;28;20519;-60
2023/07/02 02:21:31;;;;;;;6.63;3.80;;;;;;;;;;8348545;28;20031;-60
2023/07/02 02:25:31;;;;;;;7.25;4.30;;;;;;;;;;8334768;28;20024;-60
2023/07/02 02:29:31;;;;;;;6.03;3.87;;;;;;;;;;8347503;28;20024;-60
2023/07/02 02:33:32;;;;;;;10.07;4.43;;;;;;;;;;8345737;28;20283;-60
2023/07/02 02:37:38;;;;;;;7.32;4.40;;;;;;;;;;8334054;28;20016;-60
2023/07/02 02:41:38;;;;;;;7.40;4.35;;;;;;;;;;8334622;28;20039;-60
2023/07/02 02:45:38;;;;;;;8.13;5.00;;;;;;;;;;8339689;28;20040;-60
2023/07/02 02:49:39;;;;;;;7.25;4.38;;;;;;;;;;8346642;28;20043;-60
2023/07/02 02:53:39;;;;;;;7.07;4.45;;;;;;;;;;8339150;28;20025;-60
2023/07/02 02:57:40;;;;;;;9.95;5.30;;;;;;;;;;8333587;28;20528;-60
2023/07/02 03:01:40;;;;;;;9.82;4.82;;;;;;;;;;8335893;28;20036;-59
2023/07/02 03:05:40;;;;;;;8.65;5.40;;;;;;;;;;8317836;28;20029;-60
2023/07/02 03:09:40;;;;;;;10.38;5.03;;;;;;;;;;8335129;28;20021;-60
2023/07/02 03:13:41;;;;;;;10.27;5.15;;;;;;;;;;8335374;28;20129;-60
2023/07/02 03:17:41;;;;;;;10.15;5.10;;;;;;;;;;8335664;28;20104;-60
2023/07/02 03:21:42;;;;;;;9.98;5.50;;;;;;;;;;8339690;28;20040;-60
2023/07/02 03:25:42;;;;;;;8.95;4.90;;;;;;;;;;8341058;28;20652;-60
2023/07/02 03:29:42;;;;;;;11.07;5.47;;;;;;;;;;8351278;28;20032;-60
2023/07/02 03:33:43;;;;;;;10.43;5.00;;;;;;;;;;8342456;28;20037;-60
2023/07/02 03:37:43;;;;;;;8.30;4.93;;;;;;;;;;8348332;28;20025;-60
2023/07/02 03:41:44;;;;;;;9.50;5.43;;;;;;;;;;8341659;28;20055;-60
2023/07/02 03:45:44;;;;;;;9.20;5.18;;;;;;;;;;8345344;28;20068;-60
2023/07/02 03:49:44;;;;;;;8.43;4.70;;;;;;;;;;8344358;28;20032;-60
2023/07/02 03:53:45;;;;;;;10.07;5.23;;;;;;;;;;8340561;28;20678;-61
2023/07/02 03:57:45;;;;;;;10.32;5.30;;;;;;;;;;8342257;28;20086;-60
2023/07/02 04:01:45;;;;;;;10.88;5.80;;;;;;;;;;8341090;28;20041;-60
2023/07/02 04:05:45;;;;;;;12.43;5.60;;;;;;;;;;8340807;28;20023;-60
2023/07/02 04:09:46;;;;;;;11.30;5.73;;;;;;;;;;8345401;28;20025;-60
2023/07/02 04:13:46;;;;;;;13.23;6.03;;;;;;;;;;8341768;28;20032;-60
2023/07/02 04:17:46;;;;;;;9.80;5.73;;;;;;;;;;8339435;28;20493;-60
2023/07/02 04:21:47;;;;;;;10.23;6.03;;;;;;;;;;8342287;28;20631;-60
2023/07/02 04:25:47;;;;;;;13.77;6.75;;;;;;;;;;8340603;28;20097;-60
2023/07/02 04:29:47;;;;;;;10.63;5.90;;;;;;;;;;8340384;28;20462;-60
2023/07/02 04:33:47;;;;;;;13.88;6.57;;;;;;;;;;8341409;28;20344;-60
2023/07/02 04:37:47;;;;;;;10.35;6.97;;;;;;;;;;8346007;28;20017;-60
2023/07/02 04:41:52;;;;;;;12.35;6.80;;;;;;;;;;8340580;28;20020;-60
2023/07/02 04:45:52;;;;;;;15.10;7.30;;;;;;;;;;8339587;28;20106;-60
2023/07/02 04:49:52;;;;;;;11.30;7.23;;;;;;;;;;8339031;28;20121;-60
2023/07/02 04:53:53;;;;;;;13.68;6.75;;;;;;;;;;8350091;28;20422;-60
2023/07/02 04:57:54;;;;;;;12.93;6.63;;;;;;;;;;8339178;28;20727;-60
2023/07/02 05:01:54;;;;;;;13.18;7.15;;;;;;;;;;8337946;28;20044;-60
2023/07/02 05:05:54;;;;;;;12.45;7.00;;;;;;;;;;8340133;28;20024;-60
2023/07/02 05:09:54;;;;;;;14.98;7.70;;;;;;;;;;8340696;28;20107;-59
2023/07/02 05:13:55;;;;;;;15.20;7.63;;;;;;;;;;8334486;28;20037;-59
2023/07/02 05:17:55;;;;;;;13.35;7.13;;;;;;;;;;8339851;28;20059;-60
2023/07/02 05:21:55;;;;;;;12.52;7.10;;;;;;;;;;8337816;28;20032;-60
2023/07/02 05:25:56;;;;;;;11.05;7.10;;;;;;;;;;8336808;28;20071;-60
2023/07/02 05:29:56;;;;;;;12.60;7.13;;;;;;;;;;8334035;28;20155;-60
2023/07/02 05:33:56;;;;;;;10.65;7.28;;;;;;;;;;8333378;28;20037;-60
2023/07/02 05:37:56;;;;;;;11.75;7.50;;;;;;;;;;8334353;28;20489;-60
2023/07/02 05:41:56;;;;;;;13.68;7.47;;;;;;;;;;8344006;28;20904;-60
2023/07/02 05:46:00;;;;;;;16.57;7.57;;;;;;;;;;8341633;28;20056;-60
2023/07/02 05:50:00;;;;;;;14.40;7.90;;;;;;;;;;8333110;28;20021;-60
2023/07/02 05:54:00;;;;;;;14.70;8.27;;;;;;;;;;8331629;28;20021;-60
2023/07/02 05:58:02;;;;;;;12.75;7.72;;;;;;;;;;8330200;28;20104;-60
2023/07/02 06:02:03;;;;;;;15.60;8.23;;;;;;;;;;8334380;28;21045;-60
2023/07/02 06:06:03;;;;;;;13.57;8.10;;;;;;;;;;8332068;28;20394;-60
2023/07/02 06:10:03;;;;;;;14.43;8.50;;;;;;;;;;8341026;28;20098;-60
2023/07/02 06:14:04;;;;;;;14.85;8.48;;;;;;;;;;8333800;28;20025;-60
2023/07/02 06:18:04;;;;;;;13.60;9.15;;;;;;;;;;8311812;28;20036;-60
2023/07/02 06:22:04;;;;;;;14.05;8.65;;;;;;;;;;8333292;28;20196;-60
2023/07/02 06:26:04;;;;;;;12.60;8.27;;;;;;;;;;8331582;28;20718;-60
2023/07/02 06:30:05;;;;;;;15.25;8.98;;;;;;;;;;8333051;28;20640;-60
2023/07/02 06:34:06;;;;;;;14.68;8.77;;;;;;;;;;8334431;28;20064;-60
2023/07/02 06:38:06;;;;;;;14.30;8.00;;;;;;;;;;8331703;28;20020;-60
2023/07/02 06:42:07;;;;;;;13.88;8.57;;;;;;;;;;8328829;28;20275;-60
2023/07/02 06:46:09;;;;;;;12.80;7.68;;;;;;;;;;8334536;28;20429;-62
2023/07/02 06:50:09;;;;;;;13.38;8.15;;;;;;;;;;8332659;28;20155;-60
2023/07/02 06:54:10;;;;;;;14.70;8.85;;;;;;;;;;8333981;28;20024;-60
2023/07/02 06:58:10;;;;;;;12.20;7.82;;;;;;;;;;8332486;28;20118;-60
2023/07/02 07:02:10;;;;;;;11.52;7.35;;;;;;;;;;8330400;28;20060;-60
2023/07/02 07:06:11;;;;;;;10.95;7.30;;;;;;;;;;8335326;28;20033;-60
2023/07/02 07:10:11;;;;;;;14.15;7.70;;;;;;;;;;8336566;28;20102;-60
2023/07/02 07:14:11;;;;;;;12.05;7.60;;;;;;;;;;8334454;28;20033;-60
2023/07/02 07:18:12;;;;;;;9.73;7.30;;;;;;;;;;8333610;28;20079;-60
2023/07/02 07:22:12;;;;;;;11.97;8.00;;;;;;;;;;8332700;28;20501;-60
2023/07/02 07:26:12;;;;;;;14.27;8.73;;;;;;;;;;8334471;28;20263;-60
2023/07/02 07:30:14;;;;;;;15.18;8.77;;;;;;;;;;8336411;28;20512;-60
2023/07/02 07:34:14;;;;;;;13.25;8.95;;;;;;;;;;8329962;28;20017;-60
2023/07/02 07:38:14;;;;;;;13.02;8.70;;;;;;;;;;8334976;28;20099;-60
2023/07/02 07:42:16;;;;;;;11.93;8.67;;;;;;;;;;8332268;28;20958;-60
2023/07/02 07:46:16;;;;;;;12.77;8.95;;;;;;;;;;8331286;28;20051;-60
2023/07/02 07:50:17;;;;;;;14.05;9.20;;;;;;;;;;8332552;28;20390;-60
2023/07/02 07:54:17;;;;;;;14.77;8.85;;;;;;;;;;8332152;28;20579;-60
2023/07/02 07:58:17;;;;;;;11.90;8.40;;;;;;;;;;8325698;28;20027;-60
2023/07/02 08:02:17;;;;;;;12.38;9.40;;;;;;;;;;8331679;28;20052;-60
2023/07/02 08:06:18;;;;;;;14.32;9.80;;;;;;;;;;8331006;28;20039;-60
2023/07/02 08:10:18;;;;;;;13.40;9.50;;;;;;;;;;8347174;28;20081;-60
2023/07/02 08:14:18;;;;;;;14.70;9.30;;;;;;;;;;8339467;28;20032;-60
2023/07/02 08:18:19;;;;;;;12.68;9.43;;;;;;;;;;8333911;28;20294;-60
2023/07/02 08:22:19;;;;;;;13.82;9.82;;;;;;;;;;8336693;28;20063;-60
2023/07/02 08:26:19;;;;;;;15.57;9.65;;;;;;;;;;8339306;28;20040;-60
2023/07/02 08:30:19;;;;;;;15.32;10.07;;;;;;;;;;8341664;28;20033;-60
2023/07/02 08:34:19;;;;;;;12.77;9.43;;;;;;;;;;8337665;28;20425;-60
2023/07/02 08:38:20;;;;;;;14.63;9.10;;;;;;;;;;8347969;28;20448;-60
2023/07/02 08:42:20;;;;;;;12.50;9.07;;;;;;;;;;8319458;28;20121;-60
2023/07/02 08:46:21;;;;;;;15.45;9.02;;;;;;;;;;8332873;28;20055;-60
2023/07/02 08:50:21;;;;;;;14.55;9.43;;;;;;;;;;8334459;28;20033;-60
2023/07/02 08:54:21;;;;;;;13.30;9.38;;;;;;;;;;8337921;28;20020;-60
2023/07/02 08:58:21;;;;;;;16.30;10.50;;;;;;;;;;8337787;28;20036;-60
2023/07/02 09:02:31;;;;;;;14.73;10.10;;;;;;;;;;8334791;28;20132;-60
2023/07/02 09:06:32;;;;;;;14.25;9.88;;;;;;;;;;8337299;28;20404;-60
2023/07/02 09:10:32;;;;;;;14.32;9.43;;;;;;;;;;8337084;28;20769;-60
2023/07/02 09:14:32;;;;;;;13.55;9.50;;;;;;;;;;8337170;28;20205;-60
2023/07/02 09:18:33;;;;;;;13.35;9.25;;;;;;;;;;8341521;28;20029;-60
2023/07/02 09:22:33;;;;;;;16.73;9.88;;;;;;;;;;8319414;28;20025;-60
2023/07/02 09:26:33;;;;;;;12.25;8.60;;;;;;;;;;8335307;28;20032;-60
2023/07/02 09:30:34;;;;;;;13.82;9.18;;;;;;;;;;8335270;28;20237;-60
2023/07/02 09:34:35;;;;;;;12.98;8.77;;;;;;;;;;8334625;28;20059;-60
2023/07/02 09:38:35;;;;;;;14.02;9.00;;;;;;;;;;8335165;28;20017;-60
2023/07/02 09:42:37;;;;;;;11.50;8.18;;;;;;;;;;8335711;28;20031;-60
2023/07/02 09:46:38;;;;;;;;;;;;;;;;;;8333474;28;20044;-60
2023/07/02 09:50:40;;;;;;;12.30;8.68;;;;;;;;;;8331455;28;19986;-60
2023/07/02 09:54:41;;;;;;;12.67;8.43;;;;;;;;;;8335533;28;20063;-60
2023/07/02 09:58:43;;;;;;;12.23;8.23;;;;;;;;;;8334809;28;20481;-60
2023/07/02 10:02:44;;;;;;;;;;;;;;;;;;8335131;28;20508;-60
2023/07/02 10:06:48;;;;;;;12.07;9.02;;;;;;;;;;8337459;28;19950;-60
2023/07/02 10:10:48;;;;;;;13.85;8.95;;;;;;;;;;8341756;28;20116;-60
2023/07/02 10:14:50;;;;;;;13.57;9.03;;;;;;;;;;8337655;28;20062;-60
2023/07/02 10:18:50;;;;;;;17.08;9.93;;;;;;;;;;8333876;28;20143;-59
2023/07/02 10:22:53;;;;;;;15.48;10.63;;;;;;;;;;8335145;28;20036;-59
2023/07/02 10:26:55;;;;;;;15.10;10.30;;;;;;;;;;8334088;28;20037;-59
2023/07/02 10:30:56;;;;;;;15.68;10.27;;;;;;;;;;8332216;28;20041;-59
2023/07/02 10:34:58;;;;;;;13.07;10.20;;;;;;;;;;8332904;28;20024;-59
2023/07/02 10:39:04;;;;;;;12.85;9.30;;;;;;;;;;8332423;28;20093;-59
2023/07/02 10:43:04;;;;;;;13.65;9.48;;;;;;;;;;8337841;28;20060;-60
2023/07/02 10:47:04;;;;;;;14.35;9.23;;;;;;;;;;8331190;28;20041;-60
2023/07/02 10:51:11;;;;;;;12.85;9.13;;;;;;;;;;8332012;28;20508;-59
2023/07/02 10:55:22;;;;;;;14.75;9.65;;;;;;;;;;8330779;28;20542;-60
2023/07/02 10:59:25;;;;;;;14.10;9.90;;;;;;;;;;8333485;28;20055;-60
2023/07/02 11:03:26;;;;;;;16.08;9.73;;;;;;;;;;8330630;28;20061;-60
2023/07/02 11:07:26;;;;;;;15.13;10.50;;;;;;;;;;8331852;28;20040;-59
2023/07/02 11:11:27;;;;;;;15.38;9.57;;;;;;;;;;8331322;28;22184;-60
2023/07/02 11:15:35;;;;;;;13.90;10.18;;;;;;;;;;8333096;28;20048;-59
2023/07/02 11:19:35;;;;;;;15.15;9.88;;;;;;;;;;8336703;28;20021;-59
2023/07/02 11:23:36;;;;;;;13.65;9.95;;;;;;;;;;8337779;28;20028;-60
2023/07/02 11:27:36;;;;;;;15.50;9.93;;;;;;;;;;8332430;28;20021;-60
2023/07/02 11:31:36;;;;;;;14.37;9.93;;;;;;;;;;8332549;28;20090;-60
2023/07/02 11:35:36;;;;;;;13.70;9.80;;;;;;;;;;8333592;28;20374;-59
2023/07/02 11:39:37;;;;;;;14.15;10.07;;;;;;;;;;8341759;28;20070;-60
2023/07/02 11:43:38;;;;;;;15.50;9.82;;;;;;;;;;8345914;28;20089;-60
2023/07/02 11:47:38;;;;;;;15.33;9.83;;;;;;;;;;8349520;28;20215;-60
2023/07/02 11:51:39;;;;;;;14.23;10.15;;;;;;;;;;8346998;28;20085;-60
2023/07/02 11:55:39;;;;;;;16.08;10.30;;;;;;;;;;8336781;28;20033;-59
2023/07/02 11:59:40;;;;;;;15.43;10.53;;;;;;;;;;8335899;28;20859;-60
2023/07/02 12:03:40;;;;;;;15.75;10.65;;;;;;;;;;8347905;28;20041;-59
2023/07/02 12:07:40;;;;;;;15.40;10.60;;;;;;;;;;8342534;28;20031;-59
2023/07/02 12:11:41;;;;;;;17.20;10.67;;;;;;;;;;8337603;28;20028;-59
2023/07/02 12:15:41;;;;;;;18.92;10.23;;;;;;;;;;8342946;28;20033;-59
2023/07/02 12:19:42;;;;;;;15.87;10.77;;;;;;;;;;8340780;28;20031;-59
2023/07/02 12:23:42;;;;;;;17.13;11.32;;;;;;;;;;8351137;28;20043;-59
2023/07/02 12:27:42;;;;;;;13.98;11.05;;;;;;;;;;8344035;28;20102;-60
2023/07/02 12:31:42;;;;;;;16.23;11.18;;;;;;;;;;8336061;28;20286;-59
2023/07/02 12:35:42;;;;;;;15.10;10.83;;;;;;;;;;8337013;28;20024;-59
2023/07/02 12:39:43;;;;;;;17.70;11.40;;;;;;;;;;8348085;28;20276;-59
2023/07/02 12:43:43;;;;;;;16.58;11.20;;;;;;;;;;8339606;28;20067;-60
2023/07/02 12:47:43;;;;;;;18.23;11.77;;;;;;;;;;8344150;28;20131;-60
2023/07/02 12:51:43;;;;;;;20.95;12.38;;;;;;;;;;8336976;28;20020;-60
2023/07/02 12:55:44;;;;;;;16.33;11.35;;;;;;;;;;8333993;28;20161;-60
2023/07/02 12:59:44;;;;;;;15.63;11.15;;;;;;;;;;8335965;28;20708;-59
2023/07/02 13:03:44;;;;;;;15.35;11.10;;;;;;;;;;8331466;28;20446;-59
2023/07/02 13:07:45;;;;;;;17.13;11.02;;;;;;;;;;8332508;28;20024;-59
2023/07/02 13:11:45;;;;;;;16.60;12.02;;;;;;;;;;8334314;28;20515;-60
2023/07/02 13:15:46;;;;;;;17.90;11.55;;;;;;;;;;8336092;28;20171;-60
2023/07/02 13:19:46;;;;;;;19.08;11.35;;;;;;;;;;8334646;28;20040;-59
2023/07/02 13:23:46;;;;;;;17.00;11.05;;;;;;;;;;8335580;28;20048;-60
2023/07/02 13:27:46;;;;;;;15.23;10.50;;;;;;;;;;8334936;28;20052;-60
2023/07/02 13:31:47;;;;;;;16.65;10.55;;;;;;;;;;8340370;28;20045;-59
2023/07/02 13:35:47;;;;;;;18.23;11.40;;;;;;;;;;8332701;28;20029;-59
2023/07/02 13:39:48;;;;;;;16.95;11.20;;;;;;;;;;8333939;28;20568;-59
2023/07/02 13:43:48;;;;;;;15.27;10.57;;;;;;;;;;8317231;28;20439;-60
2023/07/02 13:47:49;;;;;;;27.85;11.25;;;;;;;;;;8332491;28;20039;-54
2023/07/02 13:51:50;;;;;;;17.25;11.27;;;;;;;;;;8334720;28;20039;-58
2023/07/02 13:55:50;;;;;;;16.50;10.43;;;;;;;;;;8330935;28;20048;-59
2023/07/02 13:59:50;;;;;;;17.23;10.55;;;;;;;;;;8334901;28;20469;-58
2023/07/02 14:03:52;;;;;;;14.20;10.00;;;;;;;;;;8327650;28;20214;-59
2023/07/02 14:07:53;;;;;;;18.07;10.83;;;;;;;;;;8328066;28;20106;-59
2023/07/02 14:11:53;;;;;;;16.30;11.00;;;;;;;;;;8325106;28;20052;-59
2023/07/02 14:15:53;;;;;;;15.93;10.00;;;;;;;;;;8329746;28;20056;-59
2023/07/02 14:19:53;;;;;;;16.02;10.10;;;;;;;;;;8328840;28;20311;-59
2023/07/02 14:23:53;;;;;;;13.80;10.40;;;;;;;;;;8331987;28;20116;-59
2023/07/02 14:27:54;;;;;;;16.48;10.23;;;;;;;;;;8330265;28;20118;-59
2023/07/02 14:31:54;;;;;;;15.20;9.67;;;;;;;;;;8329145;28;20041;-59
2023/07/02 14:35:54;;;;;;;16.00;10.18;;;;;;;;;;8330644;28;20028;-59
2023/07/02 14:39:54;;;;;;;14.90;10.55;;;;;;;;;;8330062;28;20028;-60
2023/07/02 14:43:54;;;;;;;15.80;10.10;;;;;;;;;;8325222;28;20119;-59
2023/07/02 14:47:59;;;;;;;16.25;10.32;;;;;;;;;;8333211;28;20139;-59
2023/07/02 14:51:59;;;;;;;15.77;9.60;;;;;;;;;;8333982;28;20028;-59
2023/07/02 14:56:01;;;;;;;17.83;10.27;;;;;;;;;;8326875;28;20135;-59
2023/07/02 15:00:02;;;;;;;16.40;9.68;;;;;;;;;;8331365;28;20470;-59
2023/07/02 15:04:02;;;;;;;17.40;10.48;;;;;;;;;;8330501;28;20041;-58
2023/07/02 15:08:02;;;;;;;15.73;10.00;;;;;;;;;;8332709;28;20495;-59
2023/07/02 15:12:02;;;;;;;15.05;9.98;;;;;;;;;;8329853;28;20036;-59
2023/07/02 15:16:03;;;;;;;17.17;11.10;;;;;;;;;;8330597;28;20039;-59
2023/07/02 15:20:03;;;;;;;13.20;9.95;;;;;;;;;;8332711;28;20355;-59
2023/07/02 15:24:05;;;;;;;18.27;10.30;;;;;;;;;;8336174;28;20033;-59
2023/07/02 15:28:05;;;;;;;16.70;10.73;;;;;;;;;;8332227;28;20029;-59
2023/07/02 15:32:06;;;;;;;19.30;10.93;;;;;;;;;;8331880;28;20060;-59
2023/07/02 15:36:09;;;;;;;17.30;10.90;;;;;;;;;;8329301;28;20025;-59
2023/07/02 15:40:09;;;;;;;17.55;10.32;;;;;;;;;;8331826;28;20116;-59
2023/07/02 15:44:09;;;;;;;16.15;10.27;;;;;;;;;;8330307;28;20178;-59
2023/07/02 15:48:09;;;;;;;18.55;11.20;;;;;;;;;;8327650;28;20041;-59
2023/07/02 15:52:10;;;;;;;18.10;10.82;;;;;;;;;;8329697;28;20052;-59
2023/07/02 15:56:10;;;;;;;18.05;10.60;;;;;;;;;;8330934;28;20105;-58
2023/07/02 16:00:11;;;;;;;15.48;9.80;;;;;;;;;;8331328;28;20021;-59
2023/07/02 16:04:11;;;;;;;16.80;10.55;;;;;;;;;;8335147;28;20032;-59
2023/07/02 16:08:12;;;;;;;16.95;10.63;;;;;;;;;;8330752;28;20059;-59
2023/07/02 16:12:12;;;;;;;17.10;10.93;;;;;;;;;;8331042;28;20336;-59
2023/07/02 16:16:12;;;;;;;15.25;10.68;;;;;;;;;;8332766;28;20082;-59
2023/07/02 16:20:12;;;;;;;16.38;10.27;;;;;;;;;;8344932;28;20025;-59
2023/07/02 16:24:19;;;;;;;16.95;9.77;;;;;;;;;;8335654;28;20029;-59
2023/07/02 16:28:20;;;;;;;18.35;10.57;;;;;;;;;;8333939;28;20059;-58
2023/07/02 16:32:24;;;;;;;16.80;10.18;;;;;;;;;;8337612;28;20050;-59
2023/07/02 16:36:24;;;;;;;15.00;10.25;;;;;;;;;;8337626;28;20078;-59
2023/07/02 16:40:24;;;;;;;16.92;10.93;;;;;;;;;;8341954;28;20025;-58
2023/07/02 16:44:26;;;;;;;17.20;10.60;;;;;;;;;;8341254;28;20130;-59
2023/07/02 16:48:26;;;;;;;16.88;10.13;;;;;;;;;;8334072;28;20036;-59
2023/07/02 16:52:26;;;;;;;17.95;10.68;;;;;;;;;;8334125;28;20029;-59
2023/07/02 16:56:26;;;;;;;16.23;10.02;;;;;;;;;;8339932;28;20044;-59
2023/07/02 17:00:26;;;;;;;17.50;10.23;;;;;;;;;;8334146;28;20145;-59
2023/07/02 17:04:27;;;;;;;19.25;10.32;;;;;;;;;;8335986;28;20503;-59
2023/07/02 17:08:27;;;;;;;16.67;10.07;;;;;;;;;;8335852;28;20055;-59
2023/07/02 17:12:29;;;;;;;13.67;9.13;;;;;;;;;;8333900;28;20939;-59
2023/07/02 17:16:29;;;;;;;16.90;10.20;;;;;;;;;;8333591;28;20279;-58
2023/07/02 17:20:29;;;;;;;18.88;9.82;;;;;;;;;;8342113;28;20537;-59
2023/07/02 17:24:32;;;;;;;18.48;10.43;;;;;;;;;;8343873;28;20060;-59
2023/07/02 17:28:32;;;;;;;16.00;9.45;;;;;;;;;;8333157;28;21623;-58
2023/07/02 17:32:33;;;;;;;18.40;10.47;;;;;;;;;;8331718;28;20094;-58
2023/07/02 17:36:33;;;;;;;16.45;9.80;;;;;;;;;;8333896;28;20020;-59
2023/07/02 17:40:37;;;;;;;17.45;9.60;;;;;;;;;;8316318;28;20147;-58
2023/07/02 17:44:39;;;;;;;20.17;10.25;;;;;;;;;;8333321;28;20036;-58
2023/07/02 17:48:39;;;;;;;16.13;9.45;;;;;;;;;;8331170;28;20064;-58
2023/07/02 17:52:39;;;;;;;17.35;9.30;;;;;;;;;;8336389;28;20495;-59
2023/07/02 17:56:39;;;;;;;17.35;9.70;;;;;;;;;;8336764;28;20159;-59
2023/07/02 18:00:40;;;;;;;16.27;9.20;;;;;;;;;;8335506;28;20033;-59
2023/07/02 18:04:40;;;;;;;13.13;8.82;;;;;;;;;;8330063;28;20048;-59
2023/07/02 18:08:40;;;;;;;16.73;9.63;;;;;;;;;;8334966;28;20052;-58
2023/07/02 18:12:40;;;;;;;16.60;9.30;;;;;;;;;;8335704;28;20025;-59
2023/07/02 18:16:40;;;;;;;18.40;9.52;;;;;;;;;;8335526;28;20556;-58
2023/07/02 18:20:41;;;;;;;18.60;9.70;;;;;;;;;;8336413;28;20120;-58
2023/07/02 18:24:41;;;;;;;15.90;9.07;;;;;;;;;;8334637;28;20044;-58
2023/07/02 18:28:41;;;;;;;15.82;8.82;;;;;;;;;;8331051;28;20021;-59
2023/07/02 18:32:42;;;;;;;15.20;8.55;;;;;;;;;;8337347;28;20033;-58
2023/07/02 18:36:48;;;;;;;20.03;9.23;;;;;;;;;;8339110;28;20028;-58
2023/07/02 18:40:57;;;;;;;15.13;9.15;;;;;;;;;;8331542;28;20418;-58
2023/07/02 18:44:58;;;;;;;15.25;8.50;;;;;;;;;;8326302;28;20040;-58
2023/07/02 18:48:59;;;;;;;17.92;9.23;;;;;;;;;;8329209;28;20040;-58
2023/07/02 18:53:00;;;;;;;17.80;9.30;;;;;;;;;;8330145;28;20025;-58
2023/07/02 18:57:02;;;;;;;15.32;9.23;;;;;;;;;;8329668;28;20033;-58
2023/07/02 19:01:07;;;;;;;20.45;9.18;;;;;;;;;;8343380;28;20378;-60
2023/07/02 19:05:08;;;;;;;18.75;8.27;;;;;;;;;;8330475;28;20024;-59
2023/07/02 19:09:08;;;;;;;16.27;8.13;;;;;;;;;;8333223;28;20074;-59
2023/07/02 19:13:09;;;;;;;14.18;8.52;;;;;;;;;;8333642;28;20565;-59
2023/07/02 19:17:11;;;;;;;15.23;8.60;;;;;;;;;;8341292;28;20040;-59
2023/07/02 19:21:13;;;;;;;19.42;8.93;;;;;;;;;;8332033;28;20037;-59
2023/07/02 19:25:14;;;;;;;14.60;8.20;;;;;;;;;;8332388;28;20771;-59
2023/07/02 19:29:14;;;;;;;17.02;8.65;;;;;;;;;;8330145;28;20029;-59
2023/07/02 19:33:14;;;;;;;14.98;8.40;;;;;;;;;;8340911;28;20131;-60
2023/07/02 19:37:15;;;;;;;14.05;7.88;;;;;;;;;;8339313;28;20033;-59
2023/07/02 19:41:15;;;;;;;18.38;8.63;;;;;;;;;;8342695;28;20087;-59
2023/07/02 19:45:16;;;;;;;17.03;8.57;;;;;;;;;;8332077;28;20870;-59
2023/07/02 19:49:16;;;;;;;15.07;8.23;;;;;;;;;;8327660;28;20745;-59
2023/07/02 19:53:16;;;;;;;16.58;8.23;;;;;;;;;;8329515;28;20125;-59
2023/07/02 19:57:17;;;;;;;16.70;8.70;;;;;;;;;;8330074;28;20040;-59
2023/07/02 20:01:20;;;;;;;15.45;8.77;;;;;;;;;;8331014;28;20097;-59
2023/07/02 20:05:20;;;;;;;17.15;7.90;;;;;;;;;;8345084;28;20028;-59
2023/07/02 20:09:20;;;;;;;14.88;8.00;;;;;;;;;;8344782;28;20033;-59
2023/07/02 20:13:21;;;;;;;13.03;7.67;;;;;;;;;;8335931;28;20032;-59
2023/07/02 20:17:22;;;;;;;14.57;7.68;;;;;;;;;;8343319;28;20286;-59
2023/07/02 20:21:23;;;;;;;16.65;8.23;;;;;;;;;;8342516;28;20031;-59
2023/07/02 20:25:27;;;;;;;15.93;8.80;;;;;;;;;;8336187;28;20024;-59
2023/07/02 20:29:28;;;;;;;13.50;8.05;;;;;;;;;;8335646;28;20135;-59
2023/07/02 20:33:29;;;;;;;15.05;7.82;;;;;;;;;;8341142;28;20111;-59
2023/07/02 20:37:31;;;;;;;17.33;8.45;;;;;;;;;;8336820;28;20064;-59
2023/07/02 20:41:31;;;;;;;17.65;7.68;;;;;;;;;;8335041;28;20024;-59
2023/07/02 20:45:31;;;;;;;17.73;8.65;;;;;;;;;;8361733;28;20097;-59
2023/07/02 20:49:31;;;;;;;16.17;8.73;;;;;;;;;;8370484;28;20028;-59
2023/07/02 20:53:32;;;;;;;15.20;8.00;;;;;;;;;;8382209;28;20041;-59
2023/07/02 20:57:32;;;;;;;13.13;7.57;;;;;;;;;;8371137;28;20031;-59
2023/07/02 21:01:33;;;;;;;19.35;8.45;;;;;;;;;;8376447;28;20032;-59
2023/07/02 21:05:33;;;;;;;15.60;7.72;;;;;;;;;;8371861;28;20027;-59
2023/07/02 21:09:33;;;;;;;14.38;7.93;;;;;;;;;;8376587;28;20016;-59
2023/07/02 21:13:33;;;;;;;18.38;8.25;;;;;;;;;;8379418;28;20148;-59
2023/07/02 21:17:33;;;;;;;15.60;7.73;;;;;;;;;;8370137;28;20150;-59
2023/07/02 21:21:35;;;;;;;14.77;7.82;;;;;;;;;;8372030;28;20761;-59
2023/07/02 21:25:35;;;;;;;17.70;7.38;;;;;;;;;;8372137;28;20028;-59
2023/07/02 21:29:36;;;;;;;16.40;7.67;;;;;;;;;;8372747;28;20047;-59
2023/07/02 21:33:36;;;;;;;15.87;7.57;;;;;;;;;;8371892;28;20417;-59
2023/07/02 21:37:36;;;;;;;15.73;7.77;;;;;;;;;;8372152;28;20027;-59
2023/07/02 21:41:36;;;;;;;18.23;8.05;;;;;;;;;;8352724;28;20024;-59
2023/07/02 21:45:36;;;;;;;13.37;7.17;;;;;;;;;;8336841;28;20490;-59
2023/07/02 21:49:37;;;;;;;15.15;7.28;;;;;;;;;;8345857;28;20554;-59
2023/07/02 21:53:37;;;;;;;15.27;7.18;;;;;;;;;;8337006;28;20116;-59
2023/07/02 21:57:37;;;;;;;13.90;6.88;;;;;;;;;;8335885;28;20017;-59
2023/07/02 22:01:38;;;;;;;18.13;6.77;;;;;;;;;;8338974;28;20037;-59
2023/07/02 22:05:38;;;;;;;15.40;6.97;;;;;;;;;;8345390;28;20275;-59
2023/07/02 22:09:40;;;;;;;15.07;7.22;;;;;;;;;;8340500;28;20040;-59
2023/07/02 22:13:40;;;;;;;14.05;7.10;;;;;;;;;;8339555;28;20021;-59
2023/07/02 22:17:41;;;;;;;22.10;7.47;;;;;;;;;;8337696;28;20061;-59
2023/07/02 22:21:44;;;;;;;16.30;6.83;;;;;;;;;;8334896;28;20127;-59
2023/07/02 22:25:44;;;;;;;13.25;6.60;;;;;;;;;;8336734;28;20094;-59
2023/07/02 22:29:44;;;;;;;13.95;7.10;;;;;;;;;;8343151;28;21128;-59
2023/07/02 22:33:45;;;;;;;16.38;7.15;;;;;;;;;;8352806;28;20047;-59
2023/07/02 22:37:45;;;;;;;17.65;7.15;;;;;;;;;;8346464;28;20023;-59
2023/07/02 22:41:45;;;;;;;16.88;6.72;;;;;;;;;;8337470;28;20171;-59
2023/07/02 22:45:46;;;;;;;14.15;5.93;;;;;;;;;;8363496;28;20485;-59
2023/07/02 22:49:46;;;;;;;17.17;6.82;;;;;;;;;;8378972;28;20575;-59
2023/07/02 22:53:46;;;;;;;12.73;6.40;;;;;;;;;;8372764;28;20043;-59
2023/07/02 22:57:46;;;;;;;13.70;6.75;;;;;;;;;;8369475;28;20024;-59
2023/07/02 23:01:47;;;;;;;12.10;6.35;;;;;;;;;;8378707;28;20035;-59
2023/07/02 23:05:47;;;;;;;14.70;6.88;;;;;;;;;;8369555;28;20326;-59
2023/07/02 23:09:47;;;;;;;13.85;6.68;;;;;;;;;;8369196;28;20020;-59
2023/07/02 23:13:48;;;;;;;16.30;6.80;;;;;;;;;;8368872;28;20131;-59
2023/07/02 23:17:49;;;;;;;13.05;6.40;;;;;;;;;;8371683;28;20130;-59
2023/07/02 23:21:49;;;;;;;13.23;6.90;;;;;;;;;;8379691;28;20025;-59
2023/07/02 23:25:49;;;;;;;13.80;6.88;;;;;;;;;;8368584;28;20657;-59
2023/07/02 23:29:55;;;;;;;15.75;7.15;;;;;;;;;;8370024;28;20051;-59
2023/07/02 23:33:55;;;;;;;13.20;6.55;;;;;;;;;;8366752;28;20195;-60
2023/07/02 23:37:56;;;;;;;13.05;6.30;;;;;;;;;;8367786;28;20044;-59